logo
Search for airport 
image banner adimage banner adimage banner ad
image banner ad

EPPO - Poznan/Lawica

Located in Poznan, Poland

ICAO - EPPO, IATA - POZ

Data provided by Airmate  

General information

Coordinates: N52°25'16" E16°49'35"
Elevation is 308 feet MSL.
Magnetic variation is 5.1667° East
Rated:
View ratings:
[VIEW]
View others Airports in Greater Poland

Operational data

Special qualification required
Current time UTC:
Current local time:
Weather
METAR: EPPO 211500Z 15012KT CAVOK 27/14 Q1004
TAF: TAF EPPO 211130Z 2112/2212 16014KT CAVOK TEMPO 2112/2117 17015G28KT BECMG 2209/2212 27012KT TEMPO 2210/2212 4000 SHRA BKN030CB
View NOTAMs / SUP AIP / TFR affecting this airport [VIEW]
Communications frequencies: [VIEW]

Runways:

RWY identifierQFULength (ft)Width (ft)SurfaceLDA (ft)
10108°8215164CONC+ASPH8215
28288°8215164CONC+ASPH8215

Airport contact information

Address: Poznan Poland

Other aviation service providers

Flight schools

Aero Poznan- Cirrus Training Center

Aero Poznan- Cirrus Training Center
azbyszewska@poznan.aero+48665104508
+48665104508
Rated:
View ratings:
[VIEW]

Ato Smart Aviation

Ato Smart Aviation
Rated:
View ratings:
[VIEW]

Gearup

Gearup
info@gearup.aero+48518395484
Rated:
View ratings:
[VIEW]

Satellite view of EPPO